sensor_id;sensor_type;location;lat;lon;timestamp;temperature;humidity
17415;DHT22;8825;48.086;16.426;2023-12-14T00:02:17;7.80;81.70
17415;DHT22;8825;48.086;16.426;2023-12-14T00:04:45;7.80;81.60
17415;DHT22;8825;48.086;16.426;2023-12-14T00:07:12;7.80;81.60
17415;DHT22;8825;48.086;16.426;2023-12-14T00:09:41;7.80;81.50
17415;DHT22;8825;48.086;16.426;2023-12-14T00:12:09;7.70;81.40
17415;DHT22;8825;48.086;16.426;2023-12-14T00:14:36;7.80;81.40
17415;DHT22;8825;48.086;16.426;2023-12-14T00:17:04;7.80;81.30
17415;DHT22;8825;48.086;16.426;2023-12-14T00:19:32;7.80;81.30
17415;DHT22;8825;48.086;16.426;2023-12-14T00:21:59;7.80;81.40
17415;DHT22;8825;48.086;16.426;2023-12-14T00:24:27;7.80;81.50
17415;DHT22;8825;48.086;16.426;2023-12-14T00:26:54;7.80;81.50
17415;DHT22;8825;48.086;16.426;2023-12-14T00:29:22;7.80;81.40
17415;DHT22;8825;48.086;16.426;2023-12-14T00:31:50;7.80;81.40
17415;DHT22;8825;48.086;16.426;2023-12-14T00:34:18;7.80;81.30
17415;DHT22;8825;48.086;16.426;2023-12-14T00:36:45;7.80;81.40
17415;DHT22;8825;48.086;16.426;2023-12-14T00:39:13;7.80;81.30
17415;DHT22;8825;48.086;16.426;2023-12-14T00:41:40;7.80;81.20
17415;DHT22;8825;48.086;16.426;2023-12-14T00:44:08;7.80;81.20
17415;DHT22;8825;48.086;16.426;2023-12-14T00:46:35;7.80;82.00
17415;DHT22;8825;48.086;16.426;2023-12-14T00:49:03;7.80;81.20
17415;DHT22;8825;48.086;16.426;2023-12-14T00:51:30;7.80;81.20
17415;DHT22;8825;48.086;16.426;2023-12-14T00:53:58;7.80;81.20
17415;DHT22;8825;48.086;16.426;2023-12-14T00:56:25;7.70;81.20
17415;DHT22;8825;48.086;16.426;2023-12-14T00:58:53;7.70;81.90
17415;DHT22;8825;48.086;16.426;2023-12-14T01:01:20;7.70;81.10
17415;DHT22;8825;48.086;16.426;2023-12-14T01:03:48;7.70;81.10
17415;DHT22;8825;48.086;16.426;2023-12-14T01:06:15;7.70;81.10
17415;DHT22;8825;48.086;16.426;2023-12-14T01:08:43;7.70;81.20
17415;DHT22;8825;48.086;16.426;2023-12-14T01:11:11;7.70;81.00
17415;DHT22;8825;48.086;16.426;2023-12-14T01:13:38;7.70;80.90
17415;DHT22;8825;48.086;16.426;2023-12-14T01:16:06;7.70;80.90
17415;DHT22;8825;48.086;16.426;2023-12-14T01:18:34;7.60;80.80
17415;DHT22;8825;48.086;16.426;2023-12-14T01:21:01;7.60;80.90
17415;DHT22;8825;48.086;16.426;2023-12-14T01:23:29;7.60;81.00
17415;DHT22;8825;48.086;16.426;2023-12-14T01:25:57;7.60;80.80
17415;DHT22;8825;48.086;16.426;2023-12-14T01:28:24;7.50;80.80
17415;DHT22;8825;48.086;16.426;2023-12-14T01:30:53;7.40;80.70
17415;DHT22;8825;48.086;16.426;2023-12-14T01:33:20;7.40;80.90
17415;DHT22;8825;48.086;16.426;2023-12-14T01:35:48;7.40;81.00
17415;DHT22;8825;48.086;16.426;2023-12-14T01:38:15;7.40;81.10
17415;DHT22;8825;48.086;16.426;2023-12-14T01:40:43;7.40;81.20
17415;DHT22;8825;48.086;16.426;2023-12-14T01:43:10;7.40;81.10
17415;DHT22;8825;48.086;16.426;2023-12-14T01:45:38;7.40;81.10
17415;DHT22;8825;48.086;16.426;2023-12-14T01:48:05;7.40;81.10
17415;DHT22;8825;48.086;16.426;2023-12-14T01:50:33;7.40;81.10
17415;DHT22;8825;48.086;16.426;2023-12-14T01:53:01;7.40;81.10
17415;DHT22;8825;48.086;16.426;2023-12-14T01:55:28;7.40;81.10
17415;DHT22;8825;48.086;16.426;2023-12-14T01:57:56;7.40;81.10
17415;DHT22;8825;48.086;16.426;2023-12-14T02:00:35;7.40;81.10
17415;DHT22;8825;48.086;16.426;2023-12-14T02:02:59;7.40;81.10
17415;DHT22;8825;48.086;16.426;2023-12-14T02:05:27;7.40;81.10
17415;DHT22;8825;48.086;16.426;2023-12-14T02:07:54;7.40;81.20
17415;DHT22;8825;48.086;16.426;2023-12-14T02:10:23;7.40;81.20
17415;DHT22;8825;48.086;16.426;2023-12-14T02:12:50;7.40;81.20
17415;DHT22;8825;48.086;16.426;2023-12-14T02:15:18;7.50;81.20
17415;DHT22;8825;48.086;16.426;2023-12-14T02:17:46;7.40;81.00
17415;DHT22;8825;48.086;16.426;2023-12-14T02:20:14;7.50;81.00
17415;DHT22;8825;48.086;16.426;2023-12-14T02:22:54;7.50;81.00
17415;DHT22;8825;48.086;16.426;2023-12-14T02:25:23;7.50;81.00
17415;DHT22;8825;48.086;16.426;2023-12-14T02:27:51;7.50;80.90
17415;DHT22;8825;48.086;16.426;2023-12-14T02:30:18;7.50;80.90
17415;DHT22;8825;48.086;16.426;2023-12-14T02:32:46;7.50;81.00
17415;DHT22;8825;48.086;16.426;2023-12-14T02:35:14;7.50;81.00
17415;DHT22;8825;48.086;16.426;2023-12-14T02:37:41;7.50;81.00
17415;DHT22;8825;48.086;16.426;2023-12-14T02:40:09;7.50;81.00
17415;DHT22;8825;48.086;16.426;2023-12-14T02:42:37;7.50;80.90
17415;DHT22;8825;48.086;16.426;2023-12-14T02:45:07;7.50;81.00
17415;DHT22;8825;48.086;16.426;2023-12-14T02:47:35;7.50;81.00
17415;DHT22;8825;48.086;16.426;2023-12-14T02:50:02;7.50;81.00
17415;DHT22;8825;48.086;16.426;2023-12-14T02:52:30;7.50;81.00
17415;DHT22;8825;48.086;16.426;2023-12-14T02:54:57;7.50;81.00
17415;DHT22;8825;48.086;16.426;2023-12-14T02:57:26;7.50;81.00
17415;DHT22;8825;48.086;16.426;2023-12-14T02:59:53;7.50;80.90
17415;DHT22;8825;48.086;16.426;2023-12-14T03:02:21;7.50;80.90
17415;DHT22;8825;48.086;16.426;2023-12-14T03:04:48;7.50;80.90
17415;DHT22;8825;48.086;16.426;2023-12-14T03:07:17;7.50;81.00
17415;DHT22;8825;48.086;16.426;2023-12-14T03:09:45;7.50;81.80
17415;DHT22;8825;48.086;16.426;2023-12-14T03:12:13;7.50;80.80
17415;DHT22;8825;48.086;16.426;2023-12-14T03:14:40;7.50;81.20
17415;DHT22;8825;48.086;16.426;2023-12-14T03:17:08;7.50;81.20
17415;DHT22;8825;48.086;16.426;2023-12-14T03:19:38;7.50;81.20
17415;DHT22;8825;48.086;16.426;2023-12-14T03:22:06;7.50;81.20
17415;DHT22;8825;48.086;16.426;2023-12-14T03:24:34;7.50;81.10
17415;DHT22;8825;48.086;16.426;2023-12-14T03:27:03;7.50;81.10
17415;DHT22;8825;48.086;16.426;2023-12-14T03:29:30;7.50;81.30
17415;DHT22;8825;48.086;16.426;2023-12-14T03:31:58;7.50;81.20
17415;DHT22;8825;48.086;16.426;2023-12-14T03:34:26;7.50;81.10
17415;DHT22;8825;48.086;16.426;2023-12-14T03:36:53;7.50;81.10
17415;DHT22;8825;48.086;16.426;2023-12-14T03:39:21;7.50;81.10
17415;DHT22;8825;48.086;16.426;2023-12-14T03:41:48;7.50;81.10
17415;DHT22;8825;48.086;16.426;2023-12-14T03:44:16;7.50;81.10
17415;DHT22;8825;48.086;16.426;2023-12-14T03:46:43;7.60;81.20
17415;DHT22;8825;48.086;16.426;2023-12-14T03:49:11;7.60;81.10
17415;DHT22;8825;48.086;16.426;2023-12-14T03:51:39;7.60;81.10
17415;DHT22;8825;48.086;16.426;2023-12-14T03:54:07;7.60;81.00
17415;DHT22;8825;48.086;16.426;2023-12-14T03:56:34;7.60;81.00
17415;DHT22;8825;48.086;16.426;2023-12-14T03:59:02;7.50;80.90
17415;DHT22;8825;48.086;16.426;2023-12-14T04:01:29;7.50;80.90
17415;DHT22;8825;48.086;16.426;2023-12-14T04:03:57;7.50;81.00
17415;DHT22;8825;48.086;16.426;2023-12-14T04:06:24;7.50;81.00
17415;DHT22;8825;48.086;16.426;2023-12-14T04:08:52;7.50;81.00
17415;DHT22;8825;48.086;16.426;2023-12-14T04:11:21;7.50;80.90
17415;DHT22;8825;48.086;16.426;2023-12-14T04:13:48;7.50;81.00
17415;DHT22;8825;48.086;16.426;2023-12-14T04:16:21;7.50;81.00
17415;DHT22;8825;48.086;16.426;2023-12-14T04:18:49;7.50;81.10
17415;DHT22;8825;48.086;16.426;2023-12-14T04:21:16;7.50;81.00
17415;DHT22;8825;48.086;16.426;2023-12-14T04:23:44;7.40;80.90
17415;DHT22;8825;48.086;16.426;2023-12-14T04:26:12;7.40;81.10
17415;DHT22;8825;48.086;16.426;2023-12-14T04:28:40;7.40;81.10
17415;DHT22;8825;48.086;16.426;2023-12-14T04:31:10;7.50;81.20
17415;DHT22;8825;48.086;16.426;2023-12-14T04:33:37;7.50;81.30
17415;DHT22;8825;48.086;16.426;2023-12-14T04:36:05;7.50;81.40
17415;DHT22;8825;48.086;16.426;2023-12-14T04:38:33;7.50;81.30
17415;DHT22;8825;48.086;16.426;2023-12-14T04:41:00;7.50;81.30
17415;DHT22;8825;48.086;16.426;2023-12-14T04:43:28;7.50;81.20
17415;DHT22;8825;48.086;16.426;2023-12-14T04:45:57;7.50;81.30
17415;DHT22;8825;48.086;16.426;2023-12-14T04:48:24;7.50;81.20
17415;DHT22;8825;48.086;16.426;2023-12-14T04:50:52;7.50;81.30
17415;DHT22;8825;48.086;16.426;2023-12-14T04:53:19;7.50;81.10
17415;DHT22;8825;48.086;16.426;2023-12-14T04:55:47;7.50;81.10
17415;DHT22;8825;48.086;16.426;2023-12-14T04:58:14;7.40;81.00
17415;DHT22;8825;48.086;16.426;2023-12-14T05:00:42;7.30;81.10
17415;DHT22;8825;48.086;16.426;2023-12-14T05:03:10;7.30;81.30
17415;DHT22;8825;48.086;16.426;2023-12-14T05:05:37;7.20;81.30
17415;DHT22;8825;48.086;16.426;2023-12-14T05:08:05;7.20;81.60
17415;DHT22;8825;48.086;16.426;2023-12-14T05:10:32;7.20;81.60
17415;DHT22;8825;48.086;16.426;2023-12-14T05:13:00;7.20;81.70
17415;DHT22;8825;48.086;16.426;2023-12-14T05:15:28;7.20;81.70
17415;DHT22;8825;48.086;16.426;2023-12-14T05:17:55;7.30;81.70
17415;DHT22;8825;48.086;16.426;2023-12-14T05:20:23;7.30;81.60
17415;DHT22;8825;48.086;16.426;2023-12-14T05:22:50;7.30;81.70
17415;DHT22;8825;48.086;16.426;2023-12-14T05:25:18;7.30;81.50
17415;DHT22;8825;48.086;16.426;2023-12-14T05:27:45;7.40;81.50
17415;DHT22;8825;48.086;16.426;2023-12-14T05:30:13;7.40;81.50
17415;DHT22;8825;48.086;16.426;2023-12-14T05:32:40;7.30;81.40
17415;DHT22;8825;48.086;16.426;2023-12-14T05:35:08;7.30;81.40
17415;DHT22;8825;48.086;16.426;2023-12-14T05:37:38;7.30;81.50
17415;DHT22;8825;48.086;16.426;2023-12-14T05:40:06;7.30;81.60
17415;DHT22;8825;48.086;16.426;2023-12-14T05:42:34;7.30;81.60
17415;DHT22;8825;48.086;16.426;2023-12-14T05:45:01;7.30;81.70
17415;DHT22;8825;48.086;16.426;2023-12-14T05:47:29;7.30;81.70
17415;DHT22;8825;48.086;16.426;2023-12-14T05:49:58;7.30;81.80
17415;DHT22;8825;48.086;16.426;2023-12-14T05:52:26;7.30;81.90
17415;DHT22;8825;48.086;16.426;2023-12-14T05:54:53;7.40;82.10
17415;DHT22;8825;48.086;16.426;2023-12-14T05:57:21;7.40;82.30
17415;DHT22;8825;48.086;16.426;2023-12-14T05:59:50;7.50;82.70
17415;DHT22;8825;48.086;16.426;2023-12-14T06:02:18;7.60;82.80
17415;DHT22;8825;48.086;16.426;2023-12-14T06:04:45;7.70;82.90
17415;DHT22;8825;48.086;16.426;2023-12-14T06:07:15;7.70;82.80
17415;DHT22;8825;48.086;16.426;2023-12-14T06:09:43;7.70;82.90
17415;DHT22;8825;48.086;16.426;2023-12-14T06:12:11;7.80;82.90
17415;DHT22;8825;48.086;16.426;2023-12-14T06:14:39;7.80;83.00
17415;DHT22;8825;48.086;16.426;2023-12-14T06:17:07;7.90;83.10
17415;DHT22;8825;48.086;16.426;2023-12-14T06:19:34;7.90;83.10
17415;DHT22;8825;48.086;16.426;2023-12-14T06:22:02;8.00;83.00
17415;DHT22;8825;48.086;16.426;2023-12-14T06:24:29;8.10;83.00
17415;DHT22;8825;48.086;16.426;2023-12-14T06:26:57;8.10;82.90
17415;DHT22;8825;48.086;16.426;2023-12-14T06:29:24;8.10;82.90
17415;DHT22;8825;48.086;16.426;2023-12-14T06:31:52;8.20;82.90
17415;DHT22;8825;48.086;16.426;2023-12-14T06:34:19;8.20;82.80
17415;DHT22;8825;48.086;16.426;2023-12-14T06:36:47;8.30;82.70
17415;DHT22;8825;48.086;16.426;2023-12-14T06:39:14;8.30;82.40
17415;DHT22;8825;48.086;16.426;2023-12-14T06:41:42;8.40;82.40
17415;DHT22;8825;48.086;16.426;2023-12-14T06:44:10;8.40;82.30
17415;DHT22;8825;48.086;16.426;2023-12-14T06:46:38;8.40;82.20
17415;DHT22;8825;48.086;16.426;2023-12-14T06:49:06;8.40;82.20
17415;DHT22;8825;48.086;16.426;2023-12-14T06:51:33;8.40;82.20
17415;DHT22;8825;48.086;16.426;2023-12-14T06:54:00;8.50;82.10
17415;DHT22;8825;48.086;16.426;2023-12-14T06:56:28;8.50;82.10
17415;DHT22;8825;48.086;16.426;2023-12-14T06:58:55;8.50;82.10
17415;DHT22;8825;48.086;16.426;2023-12-14T07:01:23;8.50;82.00
17415;DHT22;8825;48.086;16.426;2023-12-14T07:03:51;8.60;82.00
17415;DHT22;8825;48.086;16.426;2023-12-14T07:06:18;8.60;81.90
17415;DHT22;8825;48.086;16.426;2023-12-14T07:08:46;8.60;81.80
17415;DHT22;8825;48.086;16.426;2023-12-14T07:11:14;8.60;81.70
17415;DHT22;8825;48.086;16.426;2023-12-14T07:13:41;8.60;81.80
17415;DHT22;8825;48.086;16.426;2023-12-14T07:16:10;8.60;81.70
17415;DHT22;8825;48.086;16.426;2023-12-14T07:18:40;8.60;81.70
17415;DHT22;8825;48.086;16.426;2023-12-14T07:21:08;8.60;81.50
17415;DHT22;8825;48.086;16.426;2023-12-14T07:23:36;8.60;81.50
17415;DHT22;8825;48.086;16.426;2023-12-14T07:26:04;8.60;81.40
17415;DHT22;8825;48.086;16.426;2023-12-14T07:28:32;8.60;81.30
17415;DHT22;8825;48.086;16.426;2023-12-14T07:30:59;8.70;81.40
17415;DHT22;8825;48.086;16.426;2023-12-14T07:33:27;8.70;81.30
17415;DHT22;8825;48.086;16.426;2023-12-14T07:35:54;8.70;81.10
17415;DHT22;8825;48.086;16.426;2023-12-14T07:38:22;8.80;81.10
17415;DHT22;8825;48.086;16.426;2023-12-14T07:40:49;8.80;80.90
17415;DHT22;8825;48.086;16.426;2023-12-14T07:43:18;8.80;80.90
17415;DHT22;8825;48.086;16.426;2023-12-14T07:45:46;8.90;80.70
17415;DHT22;8825;48.086;16.426;2023-12-14T07:48:14;8.90;80.60
17415;DHT22;8825;48.086;16.426;2023-12-14T07:50:42;8.90;80.50
17415;DHT22;8825;48.086;16.426;2023-12-14T07:53:09;8.90;80.40
17415;DHT22;8825;48.086;16.426;2023-12-14T07:55:37;8.90;80.30
17415;DHT22;8825;48.086;16.426;2023-12-14T07:58:04;8.90;80.30
17415;DHT22;8825;48.086;16.426;2023-12-14T08:00:32;8.90;80.20
17415;DHT22;8825;48.086;16.426;2023-12-14T08:02:59;8.90;80.10
17415;DHT22;8825;48.086;16.426;2023-12-14T08:05:27;8.90;79.90
17415;DHT22;8825;48.086;16.426;2023-12-14T08:07:54;9.00;79.90
17415;DHT22;8825;48.086;16.426;2023-12-14T08:10:22;8.90;79.80
17415;DHT22;8825;48.086;16.426;2023-12-14T08:12:49;9.00;79.70
17415;DHT22;8825;48.086;16.426;2023-12-14T08:15:18;9.00;79.60
17415;DHT22;8825;48.086;16.426;2023-12-14T08:17:46;9.00;79.50
17415;DHT22;8825;48.086;16.426;2023-12-14T08:20:13;9.00;79.20
17415;DHT22;8825;48.086;16.426;2023-12-14T08:22:41;9.10;79.30
17415;DHT22;8825;48.086;16.426;2023-12-14T08:25:12;9.10;79.10
17415;DHT22;8825;48.086;16.426;2023-12-14T08:27:41;9.10;79.00
17415;DHT22;8825;48.086;16.426;2023-12-14T08:30:11;9.10;79.00
17415;DHT22;8825;48.086;16.426;2023-12-14T08:32:39;9.10;78.80
17415;DHT22;8825;48.086;16.426;2023-12-14T08:35:07;9.10;78.80
17415;DHT22;8825;48.086;16.426;2023-12-14T08:37:35;9.20;78.60
17415;DHT22;8825;48.086;16.426;2023-12-14T08:40:04;9.20;78.50
17415;DHT22;8825;48.086;16.426;2023-12-14T08:42:32;9.20;78.50
17415;DHT22;8825;48.086;16.426;2023-12-14T08:45:00;9.20;78.40
17415;DHT22;8825;48.086;16.426;2023-12-14T08:47:28;9.20;78.20
17415;DHT22;8825;48.086;16.426;2023-12-14T08:49:55;9.20;78.20
17415;DHT22;8825;48.086;16.426;2023-12-14T08:52:23;9.20;78.00
17415;DHT22;8825;48.086;16.426;2023-12-14T08:54:50;9.20;77.90
17415;DHT22;8825;48.086;16.426;2023-12-14T08:57:18;9.30;77.90
17415;DHT22;8825;48.086;16.426;2023-12-14T08:59:45;9.30;78.70
17415;DHT22;8825;48.086;16.426;2023-12-14T09:02:13;9.30;77.60
17415;DHT22;8825;48.086;16.426;2023-12-14T09:04:40;9.30;77.60
17415;DHT22;8825;48.086;16.426;2023-12-14T09:07:08;9.40;77.60
17415;DHT22;8825;48.086;16.426;2023-12-14T09:09:35;9.40;77.60
17415;DHT22;8825;48.086;16.426;2023-12-14T09:12:03;9.40;77.50
17415;DHT22;8825;48.086;16.426;2023-12-14T09:14:31;9.50;77.40
17415;DHT22;8825;48.086;16.426;2023-12-14T09:16:58;9.50;77.20
17415;DHT22;8825;48.086;16.426;2023-12-14T09:19:26;9.60;77.20
17415;DHT22;8825;48.086;16.426;2023-12-14T09:21:53;9.60;77.00
17415;DHT22;8825;48.086;16.426;2023-12-14T09:24:21;9.60;77.00
17415;DHT22;8825;48.086;16.426;2023-12-14T09:26:48;9.60;76.80
17415;DHT22;8825;48.086;16.426;2023-12-14T09:29:16;9.70;76.70
17415;DHT22;8825;48.086;16.426;2023-12-14T09:31:46;9.80;76.60
17415;DHT22;8825;48.086;16.426;2023-12-14T09:34:14;9.80;76.50
17415;DHT22;8825;48.086;16.426;2023-12-14T09:36:42;9.90;76.60
17415;DHT22;8825;48.086;16.426;2023-12-14T09:39:09;9.90;76.40
17415;DHT22;8825;48.086;16.426;2023-12-14T09:41:37;9.90;76.50
17415;DHT22;8825;48.086;16.426;2023-12-14T09:44:06;10.00;76.40
17415;DHT22;8825;48.086;16.426;2023-12-14T09:46:34;10.10;76.10
17415;DHT22;8825;48.086;16.426;2023-12-14T09:49:04;10.20;75.90
17415;DHT22;8825;48.086;16.426;2023-12-14T09:51:32;10.20;76.40
17415;DHT22;8825;48.086;16.426;2023-12-14T09:53:59;10.30;75.70
17415;DHT22;8825;48.086;16.426;2023-12-14T09:56:27;10.40;75.30
17415;DHT22;8825;48.086;16.426;2023-12-14T09:58:55;10.50;75.30
17415;DHT22;8825;48.086;16.426;2023-12-14T10:01:27;10.60;75.20
17415;DHT22;8825;48.086;16.426;2023-12-14T10:04:12;10.70;74.90
17415;DHT22;8825;48.086;16.426;2023-12-14T10:06:41;10.90;74.90
17415;DHT22;8825;48.086;16.426;2023-12-14T10:09:09;11.00;74.40
17415;DHT22;8825;48.086;16.426;2023-12-14T10:11:40;11.10;74.30
17415;DHT22;8825;48.086;16.426;2023-12-14T10:14:22;11.10;74.70
17415;DHT22;8825;48.086;16.426;2023-12-14T10:16:51;11.10;73.60
17415;DHT22;8825;48.086;16.426;2023-12-14T10:19:19;11.10;73.40
17415;DHT22;8825;48.086;16.426;2023-12-14T10:21:48;11.10;73.30
17415;DHT22;8825;48.086;16.426;2023-12-14T10:24:17;11.00;73.20
17415;DHT22;8825;48.086;16.426;2023-12-14T10:26:47;11.00;74.00
17415;DHT22;8825;48.086;16.426;2023-12-14T10:29:15;11.10;73.20
17415;DHT22;8825;48.086;16.426;2023-12-14T10:31:43;11.30;73.20
17415;DHT22;8825;48.086;16.426;2023-12-14T10:34:11;11.60;72.70
17415;DHT22;8825;48.086;16.426;2023-12-14T10:36:41;12.20;72.10
17415;DHT22;8825;48.086;16.426;2023-12-14T10:39:11;12.90;70.80
17415;DHT22;8825;48.086;16.426;2023-12-14T10:41:42;13.30;69.20
17415;DHT22;8825;48.086;16.426;2023-12-14T10:44:11;13.50;68.30
17415;DHT22;8825;48.086;16.426;2023-12-14T10:46:39;13.70;67.70
17415;DHT22;8825;48.086;16.426;2023-12-14T10:49:07;13.60;66.80
17415;DHT22;8825;48.086;16.426;2023-12-14T10:51:35;13.50;66.60
17415;DHT22;8825;48.086;16.426;2023-12-14T10:54:05;13.40;66.20
17415;DHT22;8825;48.086;16.426;2023-12-14T10:56:33;13.40;66.10
17415;DHT22;8825;48.086;16.426;2023-12-14T10:59:01;13.40;65.60
17415;DHT22;8825;48.086;16.426;2023-12-14T11:01:32;13.20;65.20
17415;DHT22;8825;48.086;16.426;2023-12-14T11:04:01;13.10;65.10
17415;DHT22;8825;48.086;16.426;2023-12-14T11:06:31;13.00;65.20
17415;DHT22;8825;48.086;16.426;2023-12-14T11:09:07;13.00;65.30
17415;DHT22;8825;48.086;16.426;2023-12-14T11:14:12;12.70;65.30
17415;DHT22;8825;48.086;16.426;2023-12-14T11:16:40;12.60;65.30
17415;DHT22;8825;48.086;16.426;2023-12-14T11:19:24;12.40;65.50
17415;DHT22;8825;48.086;16.426;2023-12-14T11:24:36;12.00;65.90
17415;DHT22;8825;48.086;16.426;2023-12-14T11:27:07;11.90;66.10
17415;DHT22;8825;48.086;16.426;2023-12-14T11:29:38;11.80;66.50
17415;DHT22;8825;48.086;16.426;2023-12-14T11:32:08;11.60;66.70
17415;DHT22;8825;48.086;16.426;2023-12-14T11:34:35;11.50;67.20
17415;DHT22;8825;48.086;16.426;2023-12-14T11:37:05;11.50;67.40
17415;DHT22;8825;48.086;16.426;2023-12-14T11:39:32;11.40;67.60
17415;DHT22;8825;48.086;16.426;2023-12-14T11:42:04;11.30;67.90
17415;DHT22;8825;48.086;16.426;2023-12-14T11:44:34;11.30;68.20
17415;DHT22;8825;48.086;16.426;2023-12-14T11:47:03;11.30;68.50
17415;DHT22;8825;48.086;16.426;2023-12-14T11:49:31;11.20;68.70
17415;DHT22;8825;48.086;16.426;2023-12-14T11:52:02;11.20;69.10
17415;DHT22;8825;48.086;16.426;2023-12-14T11:54:31;11.20;69.20
17415;DHT22;8825;48.086;16.426;2023-12-14T11:57:01;11.20;69.40
17415;DHT22;8825;48.086;16.426;2023-12-14T11:59:29;11.20;69.60
17415;DHT22;8825;48.086;16.426;2023-12-14T12:02:00;11.20;69.80
17415;DHT22;8825;48.086;16.426;2023-12-14T12:04:29;11.20;69.80
17415;DHT22;8825;48.086;16.426;2023-12-14T12:07:06;11.20;69.80
17415;DHT22;8825;48.086;16.426;2023-12-14T12:09:41;11.10;70.00
17415;DHT22;8825;48.086;16.426;2023-12-14T12:12:10;11.10;70.10
17415;DHT22;8825;48.086;16.426;2023-12-14T12:14:39;11.00;70.10
17415;DHT22;8825;48.086;16.426;2023-12-14T12:17:08;11.00;70.30
17415;DHT22;8825;48.086;16.426;2023-12-14T12:19:37;10.90;70.30
17415;DHT22;8825;48.086;16.426;2023-12-14T12:22:05;10.80;70.40
17415;DHT22;8825;48.086;16.426;2023-12-14T12:24:32;10.80;70.50
17415;DHT22;8825;48.086;16.426;2023-12-14T12:27:00;10.80;70.70
17415;DHT22;8825;48.086;16.426;2023-12-14T12:29:27;10.80;70.60
17415;DHT22;8825;48.086;16.426;2023-12-14T12:31:55;10.80;70.60
17415;DHT22;8825;48.086;16.426;2023-12-14T12:34:22;10.80;70.60
17415;DHT22;8825;48.086;16.426;2023-12-14T12:36:50;10.90;71.00
17415;DHT22;8825;48.086;16.426;2023-12-14T12:39:18;10.90;71.00
17415;DHT22;8825;48.086;16.426;2023-12-14T12:41:45;11.00;71.00
17415;DHT22;8825;48.086;16.426;2023-12-14T12:44:12;11.10;71.00
17415;DHT22;8825;48.086;16.426;2023-12-14T12:46:40;11.10;70.90
17415;DHT22;8825;48.086;16.426;2023-12-14T12:49:08;11.10;70.80
17415;DHT22;8825;48.086;16.426;2023-12-14T12:51:35;11.10;70.80
17415;DHT22;8825;48.086;16.426;2023-12-14T12:54:03;11.10;70.80
17415;DHT22;8825;48.086;16.426;2023-12-14T12:56:30;11.10;70.90
17415;DHT22;8825;48.086;16.426;2023-12-14T12:58:58;11.00;70.80
17415;DHT22;8825;48.086;16.426;2023-12-14T13:01:25;11.00;70.80
17415;DHT22;8825;48.086;16.426;2023-12-14T13:03:54;11.00;70.80
17415;DHT22;8825;48.086;16.426;2023-12-14T13:06:26;11.00;71.10
17415;DHT22;8825;48.086;16.426;2023-12-14T13:08:53;11.00;71.10
17415;DHT22;8825;48.086;16.426;2023-12-14T13:11:21;11.00;71.00
17415;DHT22;8825;48.086;16.426;2023-12-14T13:13:49;11.00;70.90
17415;DHT22;8825;48.086;16.426;2023-12-14T13:16:16;10.90;71.30
17415;DHT22;8825;48.086;16.426;2023-12-14T13:18:44;11.00;71.20
17415;DHT22;8825;48.086;16.426;2023-12-14T13:21:12;11.00;71.20
17415;DHT22;8825;48.086;16.426;2023-12-14T13:23:40;11.00;71.00
17415;DHT22;8825;48.086;16.426;2023-12-14T13:26:07;11.00;70.80
17415;DHT22;8825;48.086;16.426;2023-12-14T13:28:35;11.00;70.80
17415;DHT22;8825;48.086;16.426;2023-12-14T13:31:03;11.00;70.70
17415;DHT22;8825;48.086;16.426;2023-12-14T13:33:31;11.00;70.80
17415;DHT22;8825;48.086;16.426;2023-12-14T13:35:58;11.00;70.80
17415;DHT22;8825;48.086;16.426;2023-12-14T13:38:26;11.10;71.10
17415;DHT22;8825;48.086;16.426;2023-12-14T13:40:53;11.10;70.80
17415;DHT22;8825;48.086;16.426;2023-12-14T13:43:21;11.10;70.90
17415;DHT22;8825;48.086;16.426;2023-12-14T13:45:48;11.10;70.80
17415;DHT22;8825;48.086;16.426;2023-12-14T13:48:18;11.10;70.80
17415;DHT22;8825;48.086;16.426;2023-12-14T13:50:45;11.10;70.80
17415;DHT22;8825;48.086;16.426;2023-12-14T13:53:13;11.10;70.70
17415;DHT22;8825;48.086;16.426;2023-12-14T13:55:41;11.10;70.50
17415;DHT22;8825;48.086;16.426;2023-12-14T13:58:08;11.00;70.50
17415;DHT22;8825;48.086;16.426;2023-12-14T14:00:36;11.10;70.40
17415;DHT22;8825;48.086;16.426;2023-12-14T14:03:04;11.00;70.20
17415;DHT22;8825;48.086;16.426;2023-12-14T14:05:33;11.00;70.40
17415;DHT22;8825;48.086;16.426;2023-12-14T14:08:01;10.90;70.50
17415;DHT22;8825;48.086;16.426;2023-12-14T14:10:30;10.90;70.60
17415;DHT22;8825;48.086;16.426;2023-12-14T14:12:57;10.80;70.40
17415;DHT22;8825;48.086;16.426;2023-12-14T14:15:26;10.80;70.50
17415;DHT22;8825;48.086;16.426;2023-12-14T14:17:54;10.80;70.30
17415;DHT22;8825;48.086;16.426;2023-12-14T14:20:22;10.80;70.50
17415;DHT22;8825;48.086;16.426;2023-12-14T14:22:51;10.70;70.40
17415;DHT22;8825;48.086;16.426;2023-12-14T14:25:18;10.70;70.40
17415;DHT22;8825;48.086;16.426;2023-12-14T14:27:46;10.60;70.40
17415;DHT22;8825;48.086;16.426;2023-12-14T14:30:16;10.60;70.50
17415;DHT22;8825;48.086;16.426;2023-12-14T14:32:45;10.60;70.50
17415;DHT22;8825;48.086;16.426;2023-12-14T14:35:12;10.50;70.40
17415;DHT22;8825;48.086;16.426;2023-12-14T14:37:40;10.50;70.30
17415;DHT22;8825;48.086;16.426;2023-12-14T14:40:09;10.40;70.30
17415;DHT22;8825;48.086;16.426;2023-12-14T14:42:36;10.40;71.20
17415;DHT22;8825;48.086;16.426;2023-12-14T14:45:04;10.40;70.40
17415;DHT22;8825;48.086;16.426;2023-12-14T14:47:32;10.40;70.50
17415;DHT22;8825;48.086;16.426;2023-12-14T14:50:01;10.40;70.50
17415;DHT22;8825;48.086;16.426;2023-12-14T14:52:34;10.30;70.70
17415;DHT22;8825;48.086;16.426;2023-12-14T14:55:02;10.30;70.70
17415;DHT22;8825;48.086;16.426;2023-12-14T14:57:29;10.30;70.90
17415;DHT22;8825;48.086;16.426;2023-12-14T14:59:58;10.30;70.90
17415;DHT22;8825;48.086;16.426;2023-12-14T15:02:26;10.30;71.00
17415;DHT22;8825;48.086;16.426;2023-12-14T15:04:53;10.20;71.00
17415;DHT22;8825;48.086;16.426;2023-12-14T15:07:21;10.20;71.10
17415;DHT22;8825;48.086;16.426;2023-12-14T15:09:48;10.20;71.40
17415;DHT22;8825;48.086;16.426;2023-12-14T15:12:16;10.10;71.30
17415;DHT22;8825;48.086;16.426;2023-12-14T15:14:43;10.10;71.50
17415;DHT22;8825;48.086;16.426;2023-12-14T15:17:12;10.10;71.70
17415;DHT22;8825;48.086;16.426;2023-12-14T15:19:40;10.10;71.80
17415;DHT22;8825;48.086;16.426;2023-12-14T15:22:07;10.00;72.10
17415;DHT22;8825;48.086;16.426;2023-12-14T15:24:35;10.00;72.30
17415;DHT22;8825;48.086;16.426;2023-12-14T15:27:03;9.90;72.40
17415;DHT22;8825;48.086;16.426;2023-12-14T15:29:30;9.90;72.50
17415;DHT22;8825;48.086;16.426;2023-12-14T15:31:58;9.90;72.80
17415;DHT22;8825;48.086;16.426;2023-12-14T15:34:25;9.90;72.90
17415;DHT22;8825;48.086;16.426;2023-12-14T15:36:53;9.90;73.80
17415;DHT22;8825;48.086;16.426;2023-12-14T15:39:20;9.90;73.20
17415;DHT22;8825;48.086;16.426;2023-12-14T15:41:48;9.90;74.10
17415;DHT22;8825;48.086;16.426;2023-12-14T15:44:16;9.80;73.50
17415;DHT22;8825;48.086;16.426;2023-12-14T15:46:43;9.80;73.60
17415;DHT22;8825;48.086;16.426;2023-12-14T15:49:11;9.80;73.90
17415;DHT22;8825;48.086;16.426;2023-12-14T15:51:41;9.80;74.10